createdAt,value
2017-10-18T00:00:52.113Z,68.30
2017-10-18T00:03:19.731Z,68.60
2017-10-18T00:05:47.289Z,68.70
2017-10-18T00:08:14.903Z,68.40
2017-10-18T00:10:42.863Z,67.80
2017-10-18T00:13:10.469Z,68.00
2017-10-18T00:15:38.029Z,67.70
2017-10-18T00:18:06.049Z,68.70
2017-10-18T00:20:34.072Z,69.30
2017-10-18T00:23:03.149Z,69.10
2017-10-18T00:25:30.771Z,68.90
2017-10-18T00:27:58.369Z,68.60
2017-10-18T00:30:26.070Z,68.80
2017-10-18T00:32:54.057Z,68.50
2017-10-18T00:35:21.634Z,68.30
2017-10-18T00:37:50.405Z,68.70
2017-10-18T00:40:18.766Z,68.30
2017-10-18T00:42:46.792Z,68.30
2017-10-18T00:45:14.361Z,68.00
2017-10-18T00:47:42.382Z,67.80
2017-10-18T00:50:10.736Z,67.70
2017-10-18T00:52:39.084Z,67.40
2017-10-18T00:57:35.682Z,68.20
2017-10-18T01:02:32.233Z,68.60
2017-10-18T01:04:59.891Z,68.50
2017-10-18T01:09:56.423Z,70.30
2017-10-18T01:12:24.021Z,70.30
2017-10-18T01:14:51.613Z,70.70
2017-10-18T01:19:48.209Z,71.10
2017-10-18T01:22:15.786Z,71.30
2017-10-18T01:24:43.428Z,71.60
2017-10-18T01:27:11.010Z,72.20
2017-10-18T01:29:40.169Z,73.60
2017-10-18T01:32:08.889Z,74.00
2017-10-18T01:34:37.684Z,73.20
2017-10-18T01:37:05.327Z,72.90
2017-10-18T01:39:33.675Z,73.50
2017-10-18T01:44:30.245Z,75.40
2017-10-18T01:46:59.852Z,75.50
2017-10-18T01:51:56.506Z,75.00
2017-10-18T01:54:24.084Z,75.20
2017-10-18T01:56:53.198Z,75.30
2017-10-18T01:59:21.224Z,76.50
2017-10-18T02:01:49.199Z,76.60
2017-10-18T02:06:46.152Z,75.60
2017-10-18T02:09:14.920Z,75.60
2017-10-18T02:11:42.502Z,75.40
2017-10-18T02:14:10.861Z,75.20
2017-10-18T02:16:38.925Z,75.40
2017-10-18T02:19:06.913Z,75.00
2017-10-18T02:21:36.069Z,74.10
2017-10-18T02:24:03.648Z,74.20
2017-10-18T02:26:31.310Z,74.10
2017-10-18T02:28:58.901Z,73.90
2017-10-18T02:33:56.601Z,72.90
2017-10-18T02:36:25.333Z,73.20
2017-10-18T02:41:21.900Z,73.50
2017-10-18T02:43:49.511Z,73.60
2017-10-18T02:46:17.071Z,74.10
2017-10-18T02:48:44.634Z,74.60
2017-10-18T02:53:41.210Z,74.50
2017-10-18T03:01:06.770Z,72.40
2017-10-18T03:03:34.353Z,72.50
2017-10-18T03:06:02.342Z,72.70
2017-10-18T03:08:30.761Z,72.60
2017-10-18T03:13:27.325Z,73.50
2017-10-18T03:15:55.682Z,73.30
2017-10-18T03:18:24.797Z,73.30
2017-10-18T03:20:53.138Z,73.00
2017-10-18T03:23:20.787Z,73.20
2017-10-18T03:28:18.101Z,73.10
2017-10-18T03:30:45.714Z,73.30
2017-10-18T03:33:13.272Z,73.20
2017-10-18T03:35:40.969Z,73.70
2017-10-18T03:38:08.537Z,73.70
2017-10-18T03:40:36.157Z,73.60
2017-10-18T03:43:04.112Z,73.30
2017-10-18T03:45:33.262Z,73.60
2017-10-18T04:05:20.980Z,74.80
2017-10-18T04:13:30.784Z,74.90
2017-10-18T04:15:59.816Z,75.60
2017-10-18T04:23:28.931Z,76.10
2017-10-18T04:25:58.033Z,76.10
2017-10-18T04:28:26.477Z,75.80
2017-10-18T04:30:54.242Z,75.70
2017-10-18T04:35:51.597Z,76.30
2017-10-18T04:40:48.212Z,76.00
2017-10-18T04:43:16.549Z,76.30
2017-10-18T04:48:13.537Z,76.30
2017-10-18T04:50:42.321Z,76.40
2017-10-18T04:53:10.655Z,76.20
2017-10-18T04:55:38.223Z,75.70
2017-10-18T04:58:05.891Z,75.90
2017-10-18T05:00:33.538Z,76.30
2017-10-18T05:03:02.303Z,76.20
2017-10-18T05:05:30.169Z,76.80
2017-10-18T05:47:24.774Z,78.40
2017-10-18T05:49:52.461Z,77.40
2017-10-18T05:52:20.040Z,78.40
2017-10-18T05:59:47.070Z,77.20
2017-10-18T06:14:40.467Z,76.70
2017-10-18T06:17:08.808Z,76.70
2017-10-18T06:24:35.748Z,76.70
2017-10-18T06:27:03.315Z,76.70
2017-10-18T06:29:30.920Z,76.80
2017-10-18T06:31:58.498Z,77.20
2017-10-18T06:34:26.086Z,77.50
2017-10-18T06:36:53.720Z,78.00
2017-10-18T06:39:22.073Z,77.60
2017-10-18T06:44:19.014Z,77.50
2017-10-18T06:46:46.646Z,77.60
2017-10-18T06:49:14.232Z,78.00
2017-10-18T06:51:42.200Z,77.80
2017-10-18T06:54:10.712Z,77.70
2017-10-18T06:56:39.057Z,77.60
2017-10-18T06:59:06.692Z,78.70
2017-10-18T07:01:34.538Z,79.40
2017-10-18T07:04:02.160Z,80.20
2017-10-18T07:06:29.732Z,79.70
2017-10-18T07:08:57.339Z,79.70
2017-10-18T07:11:24.957Z,79.00
2017-10-18T07:16:21.594Z,78.00
2017-10-18T07:18:49.168Z,77.50
2017-10-18T07:21:16.854Z,77.20
2017-10-18T07:23:44.824Z,77.30
2017-10-18T07:26:12.421Z,77.20
2017-10-18T07:28:40.863Z,76.90
2017-10-18T07:31:08.501Z,76.10
2017-10-18T07:33:36.526Z,75.80
2017-10-18T07:36:04.880Z,75.50
2017-10-18T07:38:34.019Z,75.30
2017-10-18T07:41:01.595Z,75.40
2017-10-18T07:43:29.327Z,75.20
2017-10-18T07:45:57.052Z,75.60
2017-10-18T07:48:25.481Z,76.10
2017-10-18T07:50:53.097Z,76.20
2017-10-18T07:53:21.562Z,76.40
2017-10-18T07:55:49.542Z,76.00
2017-10-18T07:58:17.193Z,75.80
2017-10-18T08:00:45.340Z,76.00
2017-10-18T08:03:14.392Z,76.30
2017-10-18T08:05:42.525Z,76.20
2017-10-18T08:08:10.739Z,76.70
2017-10-18T08:10:39.091Z,77.20
2017-10-18T08:13:07.942Z,77.50
2017-10-18T08:15:35.563Z,77.60
2017-10-18T08:18:04.172Z,78.50
2017-10-18T08:20:31.789Z,78.50
2017-10-18T08:23:00.128Z,78.00
2017-10-18T08:25:27.763Z,78.10
2017-10-18T08:27:56.120Z,78.30
2017-10-18T08:30:23.802Z,78.00
2017-10-18T08:32:51.385Z,77.90
2017-10-18T08:35:19.345Z,78.10
2017-10-18T08:37:46.968Z,77.40
2017-10-18T08:40:14.548Z,77.00
2017-10-18T08:42:42.220Z,77.50
2017-10-18T08:45:09.846Z,77.10
2017-10-18T08:47:37.481Z,76.30
2017-10-18T08:50:06.602Z,76.80
2017-10-18T08:52:34.189Z,76.20
2017-10-18T08:55:01.819Z,75.70
2017-10-18T08:57:30.218Z,75.00
2017-10-18T08:59:59.557Z,75.30
2017-10-18T09:04:56.270Z,74.60
2017-10-18T09:07:24.654Z,75.40
2017-10-18T09:09:52.238Z,75.60
2017-10-18T09:12:19.866Z,77.00
2017-10-18T09:14:47.692Z,77.50
2017-10-18T09:17:15.721Z,77.30
2017-10-18T09:19:43.310Z,77.30
2017-10-18T09:24:40.675Z,76.20
2017-10-18T09:27:08.645Z,76.40
2017-10-18T09:29:36.667Z,76.10
2017-10-18T09:32:04.248Z,75.40
2017-10-18T09:39:29.718Z,74.40
2017-10-18T09:44:26.319Z,73.60
2017-10-18T09:46:55.082Z,74.40
2017-10-18T09:49:23.077Z,73.70
2017-10-18T09:51:50.734Z,73.90
2017-10-18T09:54:19.432Z,73.00
2017-10-18T09:56:47.425Z,71.80
2017-10-18T10:01:43.975Z,67.70
2017-10-18T10:04:12.720Z,63.90
2017-10-18T10:06:40.311Z,61.50
2017-10-18T10:09:08.021Z,60.40
2017-10-18T10:11:35.598Z,56.70
2017-10-18T10:14:03.594Z,55.10
2017-10-18T10:16:31.238Z,54.30
2017-10-18T10:18:58.841Z,52.20
2017-10-18T10:21:26.445Z,51.80
2017-10-18T10:23:55.756Z,52.60
2017-10-18T10:26:24.148Z,51.90
2017-10-18T10:28:52.193Z,53.80
2017-10-18T10:31:20.182Z,52.50
2017-10-18T10:33:47.824Z,53.30
2017-10-18T10:36:15.802Z,54.70
2017-10-18T10:38:44.181Z,55.60
2017-10-18T10:41:12.153Z,56.00
2017-10-18T10:43:40.207Z,56.50
2017-10-18T10:46:08.796Z,56.10
2017-10-18T10:48:37.170Z,57.50
2017-10-18T10:51:05.931Z,57.70
2017-10-18T10:53:33.925Z,57.10
2017-10-18T10:58:31.783Z,59.40
2017-10-18T11:00:59.412Z,57.60
2017-10-18T11:03:28.504Z,57.20
2017-10-18T11:05:56.091Z,57.50
2017-10-18T11:08:23.723Z,57.60
2017-10-18T11:10:52.064Z,57.60
2017-10-18T11:13:19.651Z,57.60
2017-10-18T11:15:47.992Z,55.60
2017-10-18T11:18:15.624Z,55.40
2017-10-18T11:20:43.614Z,56.10
2017-10-18T11:23:11.188Z,55.80
2017-10-18T11:25:38.831Z,55.60
2017-10-18T11:28:07.160Z,57.20
2017-10-18T11:30:35.913Z,56.10
2017-10-18T11:33:03.769Z,55.70
2017-10-18T11:35:31.437Z,55.80
2017-10-18T11:37:59.033Z,55.90
2017-10-18T11:40:26.625Z,55.60
2017-10-18T11:42:54.688Z,55.10
2017-10-18T11:45:23.296Z,52.50
2017-10-18T11:47:51.039Z,54.10
2017-10-18T11:50:19.381Z,54.00
2017-10-18T11:52:46.992Z,52.20
2017-10-18T11:55:14.567Z,53.40
2017-10-18T11:57:42.159Z,51.50
2017-10-18T12:00:09.770Z,52.80
2017-10-18T12:02:37.355Z,51.00
2017-10-18T12:05:04.984Z,50.90
2017-10-18T12:07:32.556Z,48.90
2017-10-18T12:10:00.613Z,49.00
2017-10-18T12:12:28.186Z,48.30
2017-10-18T12:14:55.739Z,48.60
2017-10-18T12:17:23.336Z,47.80
2017-10-18T12:19:50.901Z,48.70
2017-10-18T12:22:18.521Z,47.10
2017-10-18T12:24:46.182Z,48.60
2017-10-18T12:27:14.045Z,48.10
2017-10-18T12:29:41.605Z,48.00
2017-10-18T12:32:09.596Z,48.20
2017-10-18T12:34:37.228Z,48.90
2017-10-18T12:37:04.793Z,47.60
2017-10-18T12:39:32.436Z,48.30
2017-10-18T12:42:00.016Z,47.90
2017-10-18T12:44:27.600Z,47.60
2017-10-18T12:46:55.217Z,46.30
2017-10-18T12:49:22.797Z,45.70
2017-10-18T12:51:50.433Z,46.50
2017-10-18T12:54:18.009Z,45.10
2017-10-18T12:56:45.653Z,44.20
2017-10-18T12:59:13.230Z,43.90
2017-10-18T13:01:40.869Z,44.60
2017-10-18T13:04:08.476Z,44.90
2017-10-18T13:06:36.109Z,45.50
2017-10-18T13:09:03.749Z,46.60
2017-10-18T13:11:31.359Z,45.00
2017-10-18T13:13:58.989Z,44.80
2017-10-18T13:16:26.610Z,43.60
2017-10-18T13:18:54.185Z,43.30
2017-10-18T13:21:21.806Z,43.70
2017-10-18T13:23:49.519Z,44.30
2017-10-18T13:26:17.260Z,45.00
2017-10-18T13:28:44.889Z,45.60
2017-10-18T13:31:12.580Z,44.80
2017-10-18T13:33:40.201Z,45.70
2017-10-18T13:36:08.927Z,46.30
2017-10-18T13:38:36.578Z,44.50
2017-10-18T13:41:04.159Z,44.10
2017-10-18T13:43:31.805Z,42.20
2017-10-18T13:45:59.373Z,42.70
2017-10-18T13:48:26.985Z,44.30
2017-10-18T13:50:54.544Z,44.00
2017-10-18T13:53:22.165Z,43.50
2017-10-18T13:55:49.792Z,41.80
2017-10-18T13:58:18.188Z,41.50
2017-10-18T14:00:45.795Z,39.40
2017-10-18T14:03:13.595Z,40.10
2017-10-18T14:05:41.257Z,41.50
2017-10-18T14:08:08.855Z,41.30
2017-10-18T14:10:36.841Z,41.30
2017-10-18T14:13:04.465Z,40.90
2017-10-18T14:15:32.037Z,41.10
2017-10-18T14:17:59.792Z,41.30
2017-10-18T14:20:27.433Z,40.00
2017-10-18T14:22:55.082Z,40.20
2017-10-18T14:25:22.664Z,37.50
2017-10-18T14:27:50.261Z,38.50
2017-10-18T14:30:17.897Z,37.30
2017-10-18T14:32:45.518Z,38.10
2017-10-18T14:35:13.122Z,38.40
2017-10-18T14:37:40.787Z,38.50
2017-10-18T14:40:08.374Z,39.20
2017-10-18T14:42:36.002Z,38.50
2017-10-18T14:45:04.052Z,38.60
2017-10-18T14:47:31.721Z,38.50
2017-10-18T14:49:59.427Z,39.40
2017-10-18T14:52:28.034Z,39.30
2017-10-18T14:54:56.265Z,37.10
2017-10-18T14:57:23.968Z,37.40
2017-10-18T14:59:51.636Z,38.40
2017-10-18T15:02:19.209Z,38.50
2017-10-18T15:04:46.826Z,39.30
2017-10-18T15:07:14.404Z,38.90
2017-10-18T15:09:42.201Z,39.50
2017-10-18T15:12:09.830Z,39.00
2017-10-18T15:14:37.923Z,38.10
2017-10-18T15:17:05.542Z,38.20
2017-10-18T15:19:33.124Z,37.90
2017-10-18T15:22:00.746Z,38.10
2017-10-18T15:24:28.761Z,38.30
2017-10-18T15:26:56.410Z,37.60
2017-10-18T15:29:24.094Z,38.50
2017-10-18T15:31:52.341Z,38.70
2017-10-18T15:34:21.760Z,39.10
2017-10-18T15:36:52.152Z,39.60
2017-10-18T15:39:19.769Z,39.90
2017-10-18T15:41:47.358Z,39.60
2017-10-18T15:44:15.817Z,39.40
2017-10-18T15:46:44.190Z,39.50
2017-10-18T15:49:11.806Z,39.50
2017-10-18T15:51:39.463Z,39.80
2017-10-18T15:54:07.045Z,40.20
2017-10-18T15:56:35.093Z,40.10
2017-10-18T15:59:02.675Z,40.70
2017-10-18T16:01:31.128Z,41.90
2017-10-18T16:03:59.485Z,42.90
2017-10-18T16:06:27.908Z,44.10
2017-10-18T16:08:56.301Z,45.00
2017-10-18T16:11:24.714Z,45.30
2017-10-18T16:13:52.339Z,45.40
2017-10-18T16:16:19.985Z,45.30
2017-10-18T16:18:47.644Z,45.80
2017-10-18T16:21:15.262Z,46.20
2017-10-18T16:23:43.629Z,46.80
2017-10-18T16:26:11.286Z,47.40
2017-10-18T16:28:38.876Z,48.30
2017-10-18T16:31:07.742Z,49.20
2017-10-18T16:33:35.836Z,49.90
2017-10-18T16:36:03.650Z,50.40
2017-10-18T16:38:31.263Z,51.00
2017-10-18T16:40:58.881Z,51.50
2017-10-18T16:43:26.547Z,52.00
2017-10-18T16:45:54.886Z,52.50
2017-10-18T16:48:22.520Z,53.10
2017-10-18T16:50:51.122Z,53.40
2017-10-18T16:53:18.798Z,53.80
2017-10-18T16:55:46.438Z,54.10
2017-10-18T16:58:15.332Z,54.50
2017-10-18T17:00:43.357Z,55.00
2017-10-18T17:03:11.489Z,55.50
2017-10-18T17:05:40.306Z,55.70
2017-10-18T17:10:37.232Z,56.20
2017-10-18T17:13:04.830Z,56.30
2017-10-18T17:15:32.803Z,56.80
2017-10-18T17:18:00.497Z,57.10
2017-10-18T17:20:28.083Z,57.00
2017-10-18T17:22:55.725Z,57.40
2017-10-18T17:25:23.309Z,58.00
2017-10-18T17:27:50.926Z,58.80
2017-10-18T17:32:52.935Z,59.60
2017-10-18T17:35:20.559Z,59.80
2017-10-18T17:37:48.137Z,59.80
2017-10-18T17:40:15.779Z,59.40
2017-10-18T17:42:43.358Z,59.00
2017-10-18T17:45:11.324Z,58.90
2017-10-18T17:47:38.947Z,59.00
2017-10-18T17:50:07.652Z,59.20
2017-10-18T17:52:35.282Z,59.80
2017-10-18T17:55:04.018Z,60.20
2017-10-18T17:57:32.614Z,60.40
2017-10-18T18:00:00.654Z,60.10
2017-10-18T18:02:28.226Z,61.00
2017-10-18T18:04:56.607Z,60.90
2017-10-18T18:07:25.005Z,61.30
2017-10-18T18:09:53.768Z,60.70
2017-10-18T18:12:21.374Z,60.70
2017-10-18T18:14:50.165Z,61.60
2017-10-18T18:17:17.758Z,62.50
2017-10-18T18:19:45.513Z,63.20
2017-10-18T18:22:13.137Z,63.40
2017-10-18T18:27:10.794Z,62.80
2017-10-18T18:29:39.152Z,62.40
2017-10-18T18:32:07.409Z,63.40
2017-10-18T18:34:35.433Z,63.20
2017-10-18T18:39:32.023Z,63.20
2017-10-18T18:42:00.409Z,63.60
2017-10-18T18:44:28.104Z,64.10
2017-10-18T18:46:56.099Z,64.70
2017-10-18T18:49:24.441Z,65.30
2017-10-18T18:51:52.038Z,65.00
2017-10-18T18:54:19.662Z,65.10
2017-10-18T18:56:47.257Z,66.50
2017-10-18T18:59:14.885Z,66.80
2017-10-18T19:01:42.588Z,65.60
2017-10-18T19:04:10.380Z,65.10
2017-10-18T19:06:39.094Z,65.00
2017-10-18T19:09:07.124Z,65.70
2017-10-18T19:11:36.189Z,65.10
2017-10-18T19:14:05.157Z,64.80
2017-10-18T19:16:32.882Z,64.50
2017-10-18T19:19:00.939Z,64.30
2017-10-18T19:21:28.560Z,63.60
2017-10-18T19:23:56.802Z,64.00
2017-10-18T19:26:25.560Z,64.80
2017-10-18T19:28:53.140Z,65.10
2017-10-18T19:31:20.748Z,64.70
2017-10-18T19:33:48.718Z,65.30
2017-10-18T19:36:16.325Z,65.30
2017-10-18T19:38:43.977Z,65.90
2017-10-18T19:41:11.593Z,65.90
2017-10-18T19:43:40.284Z,65.50
2017-10-18T19:46:07.971Z,64.40
2017-10-18T19:48:35.858Z,64.60
2017-10-18T19:51:04.499Z,64.60
2017-10-18T19:53:32.098Z,64.80
2017-10-18T19:55:59.709Z,64.70
2017-10-18T19:58:27.299Z,65.00
2017-10-18T20:00:55.750Z,64.80
2017-10-18T20:05:52.352Z,65.60
2017-10-18T20:08:19.931Z,66.40
2017-10-18T20:10:47.566Z,66.70
2017-10-18T20:13:15.583Z,67.10
2017-10-18T20:15:44.143Z,67.00
2017-10-18T20:18:11.923Z,67.10
2017-10-18T20:20:39.528Z,67.60
2017-10-18T20:23:07.113Z,67.50
2017-10-18T20:25:34.686Z,66.60
2017-10-18T20:28:02.343Z,67.60
2017-10-18T20:30:29.932Z,67.30
2017-10-18T20:32:57.548Z,66.90
2017-10-18T20:35:25.512Z,67.00
2017-10-18T20:37:53.181Z,66.00
2017-10-18T20:40:21.217Z,66.80
2017-10-18T20:42:48.792Z,66.60
2017-10-18T20:45:16.992Z,66.00
2017-10-18T20:47:45.564Z,67.40
2017-10-18T20:50:13.210Z,66.50
2017-10-18T20:52:40.817Z,65.80
2017-10-18T20:55:09.802Z,66.10
2017-10-18T20:57:37.501Z,67.10
2017-10-18T21:00:05.083Z,67.30
2017-10-18T21:02:32.666Z,67.60
2017-10-18T21:05:01.484Z,67.90
2017-10-18T21:07:29.065Z,67.60
2017-10-18T21:09:57.260Z,67.60
2017-10-18T21:12:25.615Z,67.60
2017-10-18T21:15:10.586Z,67.30
2017-10-18T21:17:39.737Z,66.60
2017-10-18T21:20:07.564Z,66.20
2017-10-18T21:22:35.441Z,67.10
2017-10-18T21:25:03.811Z,67.50
2017-10-18T21:27:31.596Z,66.70
2017-10-18T21:30:00.717Z,67.40
2017-10-18T21:32:29.469Z,66.40
2017-10-18T21:34:57.062Z,65.50
2017-10-18T21:39:54.766Z,76.50
2017-10-18T21:42:22.365Z,75.20
2017-10-18T21:47:19.728Z,70.40
2017-10-18T21:49:47.291Z,67.20
2017-10-18T21:52:14.933Z,65.50
2017-10-18T21:54:42.908Z,65.00
2017-10-18T22:02:08.644Z,60.20
2017-10-18T22:07:05.277Z,60.50
2017-10-18T22:09:33.455Z,60.70
2017-10-18T22:14:30.413Z,61.10
2017-10-18T22:21:57.331Z,60.60
2017-10-18T22:24:25.682Z,60.40
2017-10-18T22:26:53.650Z,60.90
2017-10-18T22:29:22.776Z,60.60
2017-10-18T22:39:17.231Z,57.70
2017-10-18T22:44:14.173Z,59.70
2017-10-18T22:46:41.804Z,60.30
2017-10-18T22:51:40.516Z,61.60
2017-10-18T22:54:08.926Z,62.40
2017-10-18T22:56:36.533Z,63.30
2017-10-18T22:59:04.991Z,64.00
2017-10-18T23:01:33.245Z,63.90
2017-10-18T23:04:01.203Z,64.30
2017-10-18T23:06:29.582Z,65.20
2017-10-18T23:08:57.149Z,65.70
2017-10-18T23:11:25.173Z,66.30
2017-10-18T23:13:52.765Z,67.20
2017-10-18T23:16:20.327Z,65.20
2017-10-18T23:18:47.953Z,65.00
2017-10-18T23:21:17.070Z,65.50
2017-10-18T23:23:44.728Z,66.90
2017-10-18T23:26:12.292Z,67.90
2017-10-18T23:48:25.678Z,68.10
